Terminal Aerodrome Forecast
Issued by NWS Charleston, WV

Current Version | Previous Version | Text Only | Print | Product List | Glossary Off
Versions: 1 2 3 4 5 6 7 8 9 10 11 12 13 14 15 16 17 18 19 20 21 22 23 24 25 26 27

000
FTUS41 KRLX 292100 AAA
TAFBKW
TAF AMD
KBKW 292100Z 2921/3018 04003KT P6SM FEW030 BKN050 OVC080
      TEMPO 2921/2922 4SM -SHRA BKN030
     FM300600 00000KT 6SM BR SCT003
     FM301400 30006KT P6SM FEW030=

USA.gov is the U.S. government's official web portal to all federal, state and local government web resources and services.